createdAt,value
2022-09-15T00:00:14.135Z,99230.73
2022-09-15T00:03:16.155Z,99228.59
2022-09-15T00:05:58.100Z,99231.91
2022-09-15T00:08:40.609Z,99225.57
2022-09-15T00:11:25.446Z,99227.58
2022-09-15T00:14:09.218Z,99228.64
2022-09-15T00:16:51.050Z,99223.11
2022-09-15T00:19:32.904Z,99215.00
2022-09-15T00:22:14.723Z,99211.97
2022-09-15T00:24:56.594Z,99217.02
2022-09-15T00:27:38.490Z,99220.59
2022-09-15T00:30:20.281Z,99218.36
2022-09-15T00:33:02.074Z,99217.14
2022-09-15T00:35:46.542Z,99217.72
2022-09-15T00:38:28.425Z,99216.90
2022-09-15T00:41:12.230Z,99220.23
2022-09-15T00:44:00.310Z,99219.05
2022-09-15T00:46:58.663Z,99223.73
2022-09-15T00:49:50.670Z,99226.72
2022-09-15T00:52:38.516Z,99225.23
2022-09-15T00:55:25.982Z,99221.05
2022-09-15T00:58:12.075Z,99212.45
2022-09-15T01:00:58.445Z,99217.20
2022-09-15T01:03:40.783Z,99217.13
2022-09-15T01:06:35.069Z,99224.82
2022-09-15T01:09:22.801Z,99222.02
2022-09-15T01:12:05.112Z,99223.14
2022-09-15T01:14:46.900Z,99220.06
2022-09-15T01:17:34.641Z,99220.52
2022-09-15T01:20:57.591Z,99216.66
2022-09-15T01:24:19.099Z,99212.77
2022-09-15T01:27:42.213Z,99207.74
2022-09-15T01:30:25.577Z,99207.84
2022-09-15T01:33:26.141Z,99210.72
2022-09-15T01:36:18.379Z,99214.65
2022-09-15T01:39:09.536Z,99215.82
2022-09-15T01:42:02.036Z,99220.29
2022-09-15T01:44:49.665Z,99221.23
2022-09-15T01:47:34.506Z,99221.41
2022-09-15T01:50:21.035Z,99218.11
2022-09-15T01:53:08.940Z,99213.29
2022-09-15T01:56:07.664Z,99208.92
2022-09-15T01:58:51.368Z,99214.80
2022-09-15T02:01:44.871Z,99212.72
2022-09-15T02:04:36.913Z,99210.96
2022-09-15T02:07:45.322Z,99219.09
2022-09-15T02:10:38.273Z,99219.22
2022-09-15T02:13:41.161Z,99216.98
2022-09-15T02:16:25.968Z,99217.57
2022-09-15T02:19:14.770Z,99217.69
2022-09-15T02:22:08.253Z,99214.92
2022-09-15T02:25:14.126Z,99211.00
2022-09-15T02:28:01.846Z,99212.93
2022-09-15T02:30:46.808Z,99216.98
2022-09-15T02:33:35.747Z,99219.73
2022-09-15T02:36:20.672Z,99216.97
2022-09-15T02:39:08.469Z,99217.71
2022-09-15T02:41:50.570Z,99221.33
2022-09-15T02:44:32.772Z,99217.36
2022-09-15T02:47:14.668Z,99214.17
2022-09-15T02:49:57.213Z,99210.55
2022-09-15T02:52:39.200Z,99207.38
2022-09-15T02:55:21.583Z,99209.62
2022-09-15T02:58:04.197Z,99213.48
2022-09-15T03:00:46.038Z,99212.34
2022-09-15T03:03:27.886Z,99209.06
2022-09-15T03:06:21.255Z,99204.98
2022-09-15T03:09:07.551Z,99203.22
2022-09-15T03:11:49.345Z,99206.86
2022-09-15T03:14:32.877Z,99205.67
2022-09-15T03:17:14.678Z,99205.88
2022-09-15T03:19:56.463Z,99204.46
2022-09-15T03:22:38.666Z,99206.41
2022-09-15T03:25:21.073Z,99205.16
2022-09-15T03:28:03.174Z,99205.49
2022-09-15T03:30:45.725Z,99207.53
2022-09-15T03:33:27.889Z,99207.90
2022-09-15T03:36:09.888Z,99207.52
2022-09-15T03:38:51.873Z,99209.21
2022-09-15T03:41:33.780Z,99210.14
2022-09-15T03:44:15.599Z,99210.08
2022-09-15T03:46:58.492Z,99212.11
2022-09-15T03:49:40.389Z,99213.48
2022-09-15T03:52:22.181Z,99212.25
2022-09-15T03:55:04.384Z,99209.27
2022-09-15T03:57:46.177Z,99212.27
2022-09-15T04:00:28.171Z,99215.24
2022-09-15T04:03:10.377Z,99216.19
2022-09-15T04:05:52.171Z,99213.89
2022-09-15T04:08:33.965Z,99217.23
2022-09-15T04:11:16.682Z,99217.98
2022-09-15T04:13:59.088Z,99217.24
2022-09-15T04:16:40.973Z,99218.73
2022-09-15T04:19:22.879Z,99218.70
2022-09-15T04:22:04.672Z,99218.41
2022-09-15T04:24:49.641Z,99218.68
2022-09-15T04:27:34.607Z,99221.77
2022-09-15T04:30:16.400Z,99220.71
2022-09-15T04:32:58.194Z,99221.59
2022-09-15T04:35:39.987Z,99225.11
2022-09-15T04:38:21.781Z,99227.11
2022-09-15T04:41:04.904Z,99224.70
2022-09-15T04:43:47.620Z,99225.50
2022-09-15T04:46:29.578Z,99222.42
2022-09-15T04:49:11.422Z,99221.98
2022-09-15T04:51:53.921Z,99222.77
2022-09-15T04:54:36.022Z,99226.33
2022-09-15T04:57:18.327Z,99220.30
2022-09-15T05:00:00.325Z,99218.45
2022-09-15T05:02:42.221Z,99214.45
2022-09-15T05:05:24.165Z,99213.31
2022-09-15T05:08:06.728Z,99215.88
2022-09-15T05:10:48.514Z,99216.01
2022-09-15T05:13:30.522Z,99214.84
2022-09-15T05:16:23.963Z,99218.56
2022-09-15T05:19:05.863Z,99219.22
2022-09-15T05:21:47.676Z,99218.64
2022-09-15T05:24:29.469Z,99216.23
2022-09-15T05:27:11.263Z,99221.04
2022-09-15T05:30:09.724Z,99222.59
2022-09-15T05:32:55.227Z,99223.88
2022-09-15T05:35:37.020Z,99222.87
2022-09-15T05:38:19.856Z,99224.37
2022-09-15T05:41:07.554Z,99223.27
2022-09-15T05:43:51.003Z,99228.39
2022-09-15T05:46:32.858Z,99229.37
2022-09-15T05:49:15.719Z,99234.48
2022-09-15T05:51:57.508Z,99234.55
2022-09-15T05:54:39.405Z,99229.97
2022-09-15T05:57:21.397Z,99232.08
2022-09-15T06:00:04.879Z,99229.95
2022-09-15T06:02:53.870Z,99230.33
2022-09-15T06:05:35.896Z,99235.05
2022-09-15T06:08:17.667Z,99235.38
2022-09-15T06:11:07.367Z,99235.17
2022-09-15T06:13:49.675Z,99232.09
2022-09-15T06:16:33.957Z,99230.24
2022-09-15T06:19:15.819Z,99233.61
2022-09-15T06:21:57.613Z,99235.98
2022-09-15T06:24:39.405Z,99234.24
2022-09-15T06:27:21.199Z,99240.16
2022-09-15T06:30:04.017Z,99249.75
2022-09-15T06:32:48.299Z,99247.64
2022-09-15T06:35:30.264Z,99245.30
2022-09-15T06:38:12.160Z,99246.04
2022-09-15T06:41:00.713Z,99241.57
2022-09-15T06:43:43.017Z,99247.48
2022-09-15T06:46:26.856Z,99247.40
2022-09-15T06:49:08.856Z,99241.02
2022-09-15T06:51:50.650Z,99238.34
2022-09-15T06:54:32.443Z,99237.42
2022-09-15T06:57:14.653Z,99235.01
2022-09-15T06:59:56.644Z,99234.26
2022-09-15T07:02:38.718Z,99236.89
2022-09-15T07:05:20.640Z,99237.58
2022-09-15T07:08:02.950Z,99242.08
2022-09-15T07:10:48.120Z,99248.14
2022-09-15T07:13:30.526Z,99248.88
2022-09-15T07:16:13.319Z,99245.36
2022-09-15T07:18:57.295Z,99246.69
2022-09-15T07:22:14.113Z,99244.00
2022-09-15T07:24:55.896Z,99245.82
2022-09-15T07:27:37.693Z,99244.34
2022-09-15T07:30:19.481Z,99242.82
2022-09-15T07:33:01.376Z,99247.13
2022-09-15T07:35:44.603Z,99243.21
2022-09-15T07:38:26.499Z,99239.93
2022-09-15T07:41:12.595Z,99241.21
2022-09-15T07:43:56.639Z,99245.31
2022-09-15T07:46:39.047Z,99245.33
2022-09-15T07:49:20.844Z,99241.38
2022-09-15T07:52:02.842Z,99238.61
2022-09-15T07:54:44.631Z,99231.14
2022-09-15T07:57:27.449Z,99236.74
2022-09-15T08:00:10.061Z,99237.39
2022-09-15T08:02:56.998Z,99248.80
2022-09-15T08:05:42.316Z,99250.08
2022-09-15T08:08:27.529Z,99248.71
2022-09-15T08:11:16.352Z,99248.16
2022-09-15T08:14:02.294Z,99246.28
2022-09-15T08:16:44.918Z,99247.00
2022-09-15T08:19:30.643Z,99251.80
2022-09-15T08:22:12.875Z,99250.02
2022-09-15T08:24:54.668Z,99248.20
2022-09-15T08:27:36.461Z,99251.02
2022-09-15T08:30:18.972Z,99246.08
2022-09-15T08:33:00.870Z,99243.68
2022-09-15T08:35:42.661Z,99241.48
2022-09-15T08:38:24.454Z,99235.90
2022-09-15T08:41:12.089Z,99238.90
2022-09-15T08:44:12.411Z,99238.92
2022-09-15T08:46:59.735Z,99239.13
2022-09-15T08:49:55.967Z,99238.42
2022-09-15T08:52:50.868Z,99238.44
2022-09-15T08:55:52.936Z,99242.90
2022-09-15T08:58:37.840Z,99238.23
2022-09-15T09:01:43.003Z,99237.58
2022-09-15T09:04:40.655Z,99236.64
2022-09-15T09:07:38.301Z,99235.30
2022-09-15T09:10:31.944Z,99238.47
2022-09-15T09:13:38.725Z,99239.83
2022-09-15T09:16:38.955Z,99239.25
2022-09-15T09:19:28.935Z,99240.20
2022-09-15T09:22:18.439Z,99241.01
2022-09-15T09:25:11.557Z,99243.55
2022-09-15T09:27:58.596Z,99244.77
2022-09-15T09:30:40.855Z,99245.38
2022-09-15T09:33:25.548Z,99241.27
2022-09-15T09:36:12.052Z,99234.96
2022-09-15T09:38:55.996Z,99227.59
2022-09-15T09:41:39.122Z,99224.16
2022-09-15T09:44:21.222Z,99218.25
2022-09-15T09:47:04.244Z,99220.64
2022-09-15T09:49:49.306Z,99224.80
2022-09-15T09:52:38.722Z,99225.77
2022-09-15T09:55:23.928Z,99217.25
2022-09-15T09:58:15.795Z,99220.98
2022-09-15T10:01:10.711Z,99216.98
2022-09-15T10:04:17.168Z,99216.92
2022-09-15T10:06:59.671Z,99215.40
2022-09-15T10:09:50.638Z,99216.71
2022-09-15T10:12:38.721Z,99215.56
2022-09-15T10:15:26.453Z,99211.85
2022-09-15T10:18:26.772Z,99213.38
2022-09-15T10:21:10.012Z,99209.98
2022-09-15T10:23:52.212Z,99202.98
2022-09-15T10:26:34.930Z,99196.16
2022-09-15T10:29:19.072Z,99198.98
2022-09-15T10:32:16.878Z,99199.16
2022-09-15T10:35:18.910Z,99199.98
2022-09-15T10:38:11.865Z,99197.27
2022-09-15T10:41:14.242Z,99196.23
2022-09-15T10:44:54.197Z,99195.48
2022-09-15T10:47:52.784Z,99193.88
2022-09-15T10:51:09.502Z,99197.73
2022-09-15T10:54:45.106Z,99193.86
2022-09-15T10:57:35.524Z,99195.91
2022-09-15T11:00:33.273Z,99198.56
2022-09-15T11:03:39.464Z,99190.45
2022-09-15T11:06:30.975Z,99186.24
2022-09-15T11:09:20.784Z,99188.07
2022-09-15T11:12:20.208Z,99192.73
2022-09-15T11:15:24.718Z,99194.02
2022-09-15T11:18:15.540Z,99193.15
2022-09-15T11:21:03.763Z,99187.92
2022-09-15T11:23:54.671Z,99194.18
2022-09-15T11:26:44.349Z,99193.92
2022-09-15T11:29:31.350Z,99192.48
2022-09-15T11:32:18.913Z,99190.30
2022-09-15T11:35:26.899Z,99192.16
2022-09-15T11:38:40.949Z,99193.97
2022-09-15T11:41:34.622Z,99197.45
2022-09-15T11:44:29.424Z,99194.68
2022-09-15T11:47:24.831Z,99199.59
2022-09-15T11:50:28.744Z,99198.95
2022-09-15T11:53:35.729Z,99202.14
2022-09-15T11:56:36.807Z,99206.00
2022-09-15T11:59:42.448Z,99210.98
2022-09-15T12:02:40.761Z,99207.44
2022-09-15T12:05:47.203Z,99210.05
2022-09-15T12:08:41.687Z,99212.27
2022-09-15T12:11:27.653Z,99213.55
2022-09-15T12:14:35.589Z,99211.28
2022-09-15T12:17:26.903Z,99215.43
2022-09-15T12:20:29.755Z,99211.98
2022-09-15T12:23:23.067Z,99206.88
2022-09-15T12:26:15.011Z,99211.55
2022-09-15T12:28:58.931Z,99211.02
2022-09-15T12:31:41.638Z,99208.40
2022-09-15T12:34:38.995Z,99205.96
2022-09-15T12:37:22.180Z,99201.62
2022-09-15T12:40:08.159Z,99197.95
2022-09-15T12:42:50.912Z,99198.31
2022-09-15T12:45:36.392Z,99195.20
2022-09-15T12:48:25.811Z,99195.66
2022-09-15T12:51:13.272Z,99196.41
2022-09-15T12:54:02.847Z,99202.53
2022-09-15T12:56:52.261Z,99204.90
2022-09-15T12:59:34.443Z,99206.85
2022-09-15T13:02:43.831Z,99199.84
2022-09-15T13:05:46.359Z,99196.59
2022-09-15T13:08:30.917Z,99198.45
2022-09-15T13:11:17.525Z,99200.11
2022-09-15T13:14:08.942Z,99201.24
2022-09-15T13:17:07.334Z,99202.91
2022-09-15T13:19:53.112Z,99202.05
2022-09-15T13:22:41.458Z,99203.70
2022-09-15T13:25:28.475Z,99201.55
2022-09-15T13:31:23.622Z,99198.92
2022-09-15T13:41:25.207Z,99191.73
2022-09-15T13:44:32.395Z,99191.31
2022-09-15T13:47:25.963Z,99186.07
2022-09-15T13:50:34.523Z,99187.63
2022-09-15T13:53:54.881Z,99190.44
2022-09-15T13:56:40.030Z,99192.73
2022-09-15T13:59:27.535Z,99195.06
2022-09-15T14:02:09.746Z,99194.59
2022-09-15T14:04:52.295Z,99194.87
2022-09-15T14:07:34.137Z,99194.70
2022-09-15T14:10:24.483Z,99191.33
2022-09-15T14:13:06.894Z,99188.43
2022-09-15T14:16:11.778Z,99186.88
2022-09-15T14:18:57.932Z,99187.74
2022-09-15T14:21:51.306Z,99187.11
2022-09-15T14:24:40.418Z,99186.85
2022-09-15T14:27:26.412Z,99184.73
2022-09-15T14:30:17.183Z,99185.49
2022-09-15T14:33:02.316Z,99183.77
2022-09-15T14:35:45.943Z,99182.25
2022-09-15T14:38:27.777Z,99172.00
2022-09-15T14:41:19.579Z,99169.52
2022-09-15T14:44:02.115Z,99171.25
2022-09-15T14:46:44.157Z,99167.88
2022-09-15T14:49:25.991Z,99167.21
2022-09-15T14:52:24.245Z,99169.46
2022-09-15T14:55:12.246Z,99175.32
2022-09-15T14:58:02.360Z,99169.92
2022-09-15T15:00:56.075Z,99171.36
2022-09-15T15:04:20.144Z,99173.83
2022-09-15T15:07:09.709Z,99173.09
2022-09-15T15:10:06.246Z,99169.55
2022-09-15T15:12:59.061Z,99177.73
2022-09-15T15:15:46.519Z,99173.30
2022-09-15T15:18:42.231Z,99176.25
2022-09-15T15:21:45.223Z,99173.88
2022-09-15T15:24:27.042Z,99172.60
2022-09-15T15:27:33.900Z,99173.98
2022-09-15T15:30:26.673Z,99175.45
2022-09-15T15:33:19.543Z,99168.08
2022-09-15T15:36:07.835Z,99163.23
2022-09-15T15:38:53.768Z,99163.58
2022-09-15T15:41:41.023Z,99163.47
2022-09-15T15:44:28.037Z,99164.55
2022-09-15T15:47:12.597Z,99164.86
2022-09-15T15:50:12.732Z,99165.42
2022-09-15T15:52:55.808Z,99169.60
2022-09-15T15:55:40.781Z,99167.59
2022-09-15T15:58:22.832Z,99164.79
2022-09-15T16:01:05.117Z,99165.83
2022-09-15T16:03:47.031Z,99167.95
2022-09-15T16:06:29.095Z,99175.47
2022-09-15T16:09:13.720Z,99173.20
2022-09-15T16:14:42.730Z,99180.15
2022-09-15T16:17:24.629Z,99178.05
2022-09-15T16:20:07.903Z,99176.83
2022-09-15T16:22:49.864Z,99180.63
2022-09-15T16:25:39.967Z,99177.06
2022-09-15T16:28:22.026Z,99176.64
2022-09-15T16:31:04.643Z,99178.66
2022-09-15T16:33:46.485Z,99186.49
2022-09-15T16:36:28.333Z,99185.74
2022-09-15T16:39:10.143Z,99189.40
2022-09-15T16:41:51.909Z,99185.46
2022-09-15T16:44:33.753Z,99186.13
2022-09-15T16:47:15.573Z,99182.70
2022-09-15T16:49:57.451Z,99188.34
2022-09-15T16:52:39.337Z,99184.86
2022-09-15T16:55:42.992Z,99189.30
2022-09-15T16:58:24.786Z,99192.68
2022-09-15T17:01:08.222Z,99192.39
2022-09-15T17:03:50.191Z,99196.13
2022-09-15T17:06:32.143Z,99201.54
2022-09-15T17:09:14.046Z,99204.02
2022-09-15T17:11:56.477Z,99206.01
2022-09-15T17:14:38.409Z,99206.83
2022-09-15T17:17:24.967Z,99206.70
2022-09-15T17:20:07.459Z,99210.20
2022-09-15T17:22:50.393Z,99212.16
2022-09-15T17:25:40.026Z,99211.49
2022-09-15T17:28:26.792Z,99215.29
2022-09-15T17:31:17.175Z,99215.96
2022-09-15T17:33:59.177Z,99216.98
2022-09-15T17:36:41.280Z,99218.17
2022-09-15T17:39:23.268Z,99222.10
2022-09-15T17:42:05.506Z,99219.05
2022-09-15T17:44:47.419Z,99219.22
2022-09-15T17:47:31.119Z,99220.59
2022-09-15T17:50:13.521Z,99221.63
2022-09-15T17:52:57.247Z,99219.46
2022-09-15T17:55:39.999Z,99220.30
2022-09-15T17:58:23.732Z,99224.95
2022-09-15T18:01:06.736Z,99226.64
2022-09-15T18:03:49.676Z,99227.88
2022-09-15T18:06:32.086Z,99227.23
2022-09-15T18:09:15.788Z,99228.02
2022-09-15T18:11:57.982Z,99230.55
2022-09-15T18:14:41.728Z,99229.41
2022-09-15T18:17:27.631Z,99230.13
2022-09-15T18:20:14.563Z,99232.17
2022-09-15T18:22:57.158Z,99232.56
2022-09-15T18:25:39.073Z,99234.45
2022-09-15T18:28:21.007Z,99233.48
2022-09-15T18:31:03.368Z,99233.92
2022-09-15T18:33:45.649Z,99233.92
2022-09-15T18:36:28.069Z,99231.06
2022-09-15T18:39:12.333Z,99237.56
2022-09-15T18:41:54.495Z,99240.65
2022-09-15T18:44:36.365Z,99239.48
2022-09-15T18:47:18.131Z,99244.34
2022-09-15T18:50:01.137Z,99242.89
2022-09-15T18:52:43.451Z,99244.91
2022-09-15T18:55:25.840Z,99244.36
2022-09-15T18:58:08.021Z,99247.00
2022-09-15T19:01:05.499Z,99246.30
2022-09-15T19:03:57.191Z,99246.67
2022-09-15T19:06:39.320Z,99248.69
2022-09-15T19:09:22.239Z,99250.86
2022-09-15T19:12:06.052Z,99250.11
2022-09-15T19:14:48.679Z,99248.33
2022-09-15T19:17:30.524Z,99252.38
2022-09-15T19:20:15.582Z,99251.60
2022-09-15T19:22:58.605Z,99255.50
2022-09-15T19:25:44.186Z,99258.38
2022-09-15T19:28:27.161Z,99262.22
2022-09-15T19:31:12.711Z,99266.19
2022-09-15T19:33:54.784Z,99268.48
2022-09-15T19:36:36.937Z,99267.50
2022-09-15T19:39:23.002Z,99270.82
2022-09-15T19:42:06.007Z,99274.10
2022-09-15T19:44:49.547Z,99273.36
2022-09-15T19:47:31.432Z,99277.62
2022-09-15T19:50:13.304Z,99272.42
2022-09-15T19:52:59.480Z,99274.79
2022-09-15T19:55:41.713Z,99275.71
2022-09-15T19:58:23.817Z,99283.55
2022-09-15T20:01:05.684Z,99283.36
2022-09-15T20:03:50.087Z,99284.33
2022-09-15T20:06:52.473Z,99284.84
2022-09-15T20:09:38.097Z,99282.02
2022-09-15T20:15:04.863Z,99279.90
2022-09-15T20:17:47.489Z,99282.42
2022-09-15T20:20:32.228Z,99286.84
2022-09-15T20:23:16.091Z,99284.17
2022-09-15T20:26:04.492Z,99283.98
2022-09-15T20:28:48.692Z,99281.84
2022-09-15T20:31:33.767Z,99285.81
2022-09-15T20:34:16.675Z,99291.14
2022-09-15T20:36:59.415Z,99296.39
2022-09-15T20:39:41.949Z,99294.95
2022-09-15T20:42:24.565Z,99302.88
2022-09-15T20:45:07.542Z,99296.91
2022-09-15T20:47:49.953Z,99295.15
2022-09-15T20:50:32.561Z,99295.04
2022-09-15T20:53:15.175Z,99293.09
2022-09-15T20:55:57.342Z,99289.59
2022-09-15T20:58:40.399Z,99289.77
2022-09-15T21:01:25.432Z,99291.56
2022-09-15T21:04:10.574Z,99290.88
2022-09-15T21:06:54.246Z,99290.84
2022-09-15T21:09:36.295Z,99289.52
2022-09-15T21:12:18.408Z,99292.59
2022-09-15T21:15:00.295Z,99292.77
2022-09-15T21:17:42.066Z,99294.31
2022-09-15T21:20:24.033Z,99298.08
2022-09-15T21:23:05.795Z,99298.71
2022-09-15T21:25:47.572Z,99304.52
2022-09-15T21:28:30.579Z,99305.55
2022-09-15T21:31:18.190Z,99303.48
2022-09-15T21:34:00.449Z,99304.61
2022-09-15T21:36:42.197Z,99300.02
2022-09-15T21:39:24.329Z,99299.63
2022-09-15T21:42:06.413Z,99294.15
2022-09-15T21:44:48.807Z,99295.88
2022-09-15T21:47:31.655Z,99296.98
2022-09-15T21:50:13.396Z,99299.59
2022-09-15T21:52:55.354Z,99297.03
2022-09-15T21:55:37.842Z,99298.95
2022-09-15T21:58:21.199Z,99298.27
2022-09-15T22:01:19.053Z,99300.73
2022-09-15T22:04:02.352Z,99308.48
2022-09-15T22:06:44.992Z,99307.73
2022-09-15T22:09:26.908Z,99313.73
2022-09-15T22:12:08.789Z,99316.77
2022-09-15T22:14:50.978Z,99324.93
2022-09-15T22:17:32.741Z,99320.58
2022-09-15T22:20:14.892Z,99321.73
2022-09-15T22:23:00.271Z,99317.85
2022-09-15T22:25:42.048Z,99324.73
2022-09-15T22:28:23.833Z,99326.95
2022-09-15T22:31:08.730Z,99322.42
2022-09-15T22:33:51.386Z,99322.14
2022-09-15T22:36:33.778Z,99321.61
2022-09-15T22:39:15.570Z,99319.13
2022-09-15T22:41:57.478Z,99318.66
2022-09-15T22:44:39.622Z,99318.00
2022-09-15T22:47:21.714Z,99326.57
2022-09-15T22:50:03.645Z,99324.38
2022-09-15T22:52:45.425Z,99325.69
2022-09-15T22:55:27.605Z,99325.37
2022-09-15T22:58:09.534Z,99323.11
2022-09-15T23:00:51.452Z,99326.33
2022-09-15T23:03:33.926Z,99326.58
2022-09-15T23:06:15.723Z,99323.64
2022-09-15T23:09:01.029Z,99324.70
2022-09-15T23:11:42.888Z,99326.97
2022-09-15T23:14:24.706Z,99325.33
2022-09-15T23:17:06.448Z,99323.98
2022-09-15T23:19:48.545Z,99329.00
2022-09-15T23:22:30.283Z,99331.05
2022-09-15T23:25:11.989Z,99334.89
2022-09-15T23:27:53.739Z,99340.25
2022-09-15T23:30:35.491Z,99342.63
2022-09-15T23:33:17.258Z,99343.60
2022-09-15T23:36:00.919Z,99342.52
2022-09-15T23:38:44.278Z,99343.45
2022-09-15T23:41:26.299Z,99341.20
2022-09-15T23:44:08.424Z,99341.81
2022-09-15T23:46:50.237Z,99345.86
2022-09-15T23:49:32.017Z,99347.61
2022-09-15T23:52:13.823Z,99351.70
2022-09-15T23:54:56.069Z,99353.57
2022-09-15T23:57:37.851Z,99354.56
